sensor_id;sensor_type;location;lat;lon;timestamp;temperature;humidity
1347;DHT22;667;48.796;9.480;2023-04-06T00:00:55;5.30;58.50
1347;DHT22;667;48.796;9.480;2023-04-06T00:03:20;5.30;58.60
1347;DHT22;667;48.796;9.480;2023-04-06T00:05:47;5.40;58.70
1347;DHT22;667;48.796;9.480;2023-04-06T00:08:13;5.30;58.70
1347;DHT22;667;48.796;9.480;2023-04-06T00:10:38;5.30;58.40
1347;DHT22;667;48.796;9.480;2023-04-06T00:13:07;5.30;58.70
1347;DHT22;667;48.796;9.480;2023-04-06T00:15:33;5.30;58.40
1347;DHT22;667;48.796;9.480;2023-04-06T00:17:59;5.20;58.50
1347;DHT22;667;48.796;9.480;2023-04-06T00:20:24;5.20;58.60
1347;DHT22;667;48.796;9.480;2023-04-06T00:22:50;5.20;58.60
1347;DHT22;667;48.796;9.480;2023-04-06T00:25:16;5.20;58.60
1347;DHT22;667;48.796;9.480;2023-04-06T00:27:42;5.20;58.60
1347;DHT22;667;48.796;9.480;2023-04-06T00:30:08;5.20;58.50
1347;DHT22;667;48.796;9.480;2023-04-06T00:32:35;5.10;58.50
1347;DHT22;667;48.796;9.480;2023-04-06T00:35:05;5.20;58.60
1347;DHT22;667;48.796;9.480;2023-04-06T00:37:31;5.10;58.50
1347;DHT22;667;48.796;9.480;2023-04-06T00:39:57;5.10;58.70
1347;DHT22;667;48.796;9.480;2023-04-06T00:42:23;5.10;58.90
1347;DHT22;667;48.796;9.480;2023-04-06T00:44:59;5.10;58.90
1347;DHT22;667;48.796;9.480;2023-04-06T00:47:25;5.00;58.90
1347;DHT22;667;48.796;9.480;2023-04-06T00:49:52;5.00;58.90
1347;DHT22;667;48.796;9.480;2023-04-06T00:52:18;5.00;58.80
1347;DHT22;667;48.796;9.480;2023-04-06T00:54:44;4.90;58.80
1347;DHT22;667;48.796;9.480;2023-04-06T00:57:11;4.90;58.90
1347;DHT22;667;48.796;9.480;2023-04-06T00:59:37;4.90;58.80
1347;DHT22;667;48.796;9.480;2023-04-06T01:02:03;4.90;58.90
1347;DHT22;667;48.796;9.480;2023-04-06T01:04:28;4.90;59.00
1347;DHT22;667;48.796;9.480;2023-04-06T01:06:54;4.90;59.10
1347;DHT22;667;48.796;9.480;2023-04-06T01:09:20;4.80;59.00
1347;DHT22;667;48.796;9.480;2023-04-06T01:11:46;4.80;59.00
1347;DHT22;667;48.796;9.480;2023-04-06T01:14:11;4.80;58.90
1347;DHT22;667;48.796;9.480;2023-04-06T01:16:37;4.80;59.00
1347;DHT22;667;48.796;9.480;2023-04-06T01:19:12;4.80;59.00
1347;DHT22;667;48.796;9.480;2023-04-06T01:21:39;4.80;59.00
1347;DHT22;667;48.796;9.480;2023-04-06T01:24:05;4.80;59.00
1347;DHT22;667;48.796;9.480;2023-04-06T01:26:31;4.80;58.90
1347;DHT22;667;48.796;9.480;2023-04-06T01:28:57;4.80;59.10
1347;DHT22;667;48.796;9.480;2023-04-06T01:31:24;4.70;59.00
1347;DHT22;667;48.796;9.480;2023-04-06T01:33:50;4.70;59.00
1347;DHT22;667;48.796;9.480;2023-04-06T01:36:16;4.70;59.20
1347;DHT22;667;48.796;9.480;2023-04-06T01:38:42;4.70;59.20
1347;DHT22;667;48.796;9.480;2023-04-06T01:41:08;4.70;59.10
1347;DHT22;667;48.796;9.480;2023-04-06T01:43:34;4.70;59.30
1347;DHT22;667;48.796;9.480;2023-04-06T01:46:00;4.70;59.20
1347;DHT22;667;48.796;9.480;2023-04-06T01:48:26;4.70;59.30
1347;DHT22;667;48.796;9.480;2023-04-06T01:50:53;4.70;59.30
1347;DHT22;667;48.796;9.480;2023-04-06T01:53:19;4.70;59.30
1347;DHT22;667;48.796;9.480;2023-04-06T01:55:44;4.70;59.40
1347;DHT22;667;48.796;9.480;2023-04-06T02:00:54;4.60;59.50
1347;DHT22;667;48.796;9.480;2023-04-06T02:03:19;4.60;59.50
1347;DHT22;667;48.796;9.480;2023-04-06T02:05:45;4.60;59.50
1347;DHT22;667;48.796;9.480;2023-04-06T02:08:11;4.60;59.50
1347;DHT22;667;48.796;9.480;2023-04-06T02:10:36;4.60;59.50
1347;DHT22;667;48.796;9.480;2023-04-06T02:13:02;4.60;59.50
1347;DHT22;667;48.796;9.480;2023-04-06T02:15:27;4.50;60.20
1347;DHT22;667;48.796;9.480;2023-04-06T02:17:53;4.50;59.70
1347;DHT22;667;48.796;9.480;2023-04-06T02:20:19;4.50;59.40
1347;DHT22;667;48.796;9.480;2023-04-06T02:22:45;4.50;59.60
1347;DHT22;667;48.796;9.480;2023-04-06T02:25:10;4.50;59.70
1347;DHT22;667;48.796;9.480;2023-04-06T02:27:37;4.40;59.60
1347;DHT22;667;48.796;9.480;2023-04-06T02:30:03;4.40;59.80
1347;DHT22;667;48.796;9.480;2023-04-06T02:32:29;4.40;59.90
1347;DHT22;667;48.796;9.480;2023-04-06T02:34:55;4.40;59.90
1347;DHT22;667;48.796;9.480;2023-04-06T02:37:21;4.40;60.00
1347;DHT22;667;48.796;9.480;2023-04-06T02:39:47;4.30;59.70
1347;DHT22;667;48.796;9.480;2023-04-06T02:42:12;4.30;59.80
1347;DHT22;667;48.796;9.480;2023-04-06T02:44:40;4.30;60.00
1347;DHT22;667;48.796;9.480;2023-04-06T02:47:06;4.30;60.10
1347;DHT22;667;48.796;9.480;2023-04-06T02:49:32;4.30;60.00
1347;DHT22;667;48.796;9.480;2023-04-06T02:51:57;4.20;60.00
1347;DHT22;667;48.796;9.480;2023-04-06T02:54:23;4.20;59.90
1347;DHT22;667;48.796;9.480;2023-04-06T02:56:48;4.20;60.00
1347;DHT22;667;48.796;9.480;2023-04-06T02:59:14;4.20;60.30
1347;DHT22;667;48.796;9.480;2023-04-06T03:01:39;4.10;60.40
1347;DHT22;667;48.796;9.480;2023-04-06T03:04:05;4.10;60.30
1347;DHT22;667;48.796;9.480;2023-04-06T03:06:31;4.10;60.20
1347;DHT22;667;48.796;9.480;2023-04-06T03:08:56;4.10;60.30
1347;DHT22;667;48.796;9.480;2023-04-06T03:11:22;4.10;60.40
1347;DHT22;667;48.796;9.480;2023-04-06T03:13:47;4.00;60.30
1347;DHT22;667;48.796;9.480;2023-04-06T03:16:13;4.00;60.30
1347;DHT22;667;48.796;9.480;2023-04-06T03:18:39;4.00;60.40
1347;DHT22;667;48.796;9.480;2023-04-06T03:21:04;4.00;60.50
1347;DHT22;667;48.796;9.480;2023-04-06T03:23:30;4.00;60.50
1347;DHT22;667;48.796;9.480;2023-04-06T03:25:55;4.00;60.40
1347;DHT22;667;48.796;9.480;2023-04-06T03:28:21;4.00;60.40
1347;DHT22;667;48.796;9.480;2023-04-06T03:30:47;4.00;60.30
1347;DHT22;667;48.796;9.480;2023-04-06T03:33:12;4.00;60.30
1347;DHT22;667;48.796;9.480;2023-04-06T03:35:38;4.00;60.30
1347;DHT22;667;48.796;9.480;2023-04-06T03:38:04;4.00;60.30
1347;DHT22;667;48.796;9.480;2023-04-06T03:40:31;4.00;60.20
1347;DHT22;667;48.796;9.480;2023-04-06T03:42:57;4.00;60.10
1347;DHT22;667;48.796;9.480;2023-04-06T03:45:22;4.00;60.20
1347;DHT22;667;48.796;9.480;2023-04-06T03:47:48;4.00;60.40
1347;DHT22;667;48.796;9.480;2023-04-06T03:50:13;4.00;60.40
1347;DHT22;667;48.796;9.480;2023-04-06T03:52:39;3.90;60.30
1347;DHT22;667;48.796;9.480;2023-04-06T03:55:06;3.90;60.00
1347;DHT22;667;48.796;9.480;2023-04-06T03:57:32;3.90;60.10
1347;DHT22;667;48.796;9.480;2023-04-06T03:59:57;3.90;60.30
1347;DHT22;667;48.796;9.480;2023-04-06T04:02:23;3.90;60.20
1347;DHT22;667;48.796;9.480;2023-04-06T04:04:48;3.90;60.30
1347;DHT22;667;48.796;9.480;2023-04-06T04:07:14;3.90;60.10
1347;DHT22;667;48.796;9.480;2023-04-06T04:09:40;3.90;60.10
1347;DHT22;667;48.796;9.480;2023-04-06T04:12:06;3.90;60.30
1347;DHT22;667;48.796;9.480;2023-04-06T04:14:31;3.90;60.30
1347;DHT22;667;48.796;9.480;2023-04-06T04:16:57;3.90;60.30
1347;DHT22;667;48.796;9.480;2023-04-06T04:19:22;3.80;60.20
1347;DHT22;667;48.796;9.480;2023-04-06T04:21:48;3.80;60.30
1347;DHT22;667;48.796;9.480;2023-04-06T04:24:14;3.80;60.40
1347;DHT22;667;48.796;9.480;2023-04-06T04:26:39;3.80;60.50
1347;DHT22;667;48.796;9.480;2023-04-06T04:29:06;3.80;60.50
1347;DHT22;667;48.796;9.480;2023-04-06T04:31:32;3.70;60.50
1347;DHT22;667;48.796;9.480;2023-04-06T04:33:59;3.70;60.50
1347;DHT22;667;48.796;9.480;2023-04-06T04:36:25;3.70;60.60
1347;DHT22;667;48.796;9.480;2023-04-06T04:38:51;3.60;60.50
1347;DHT22;667;48.796;9.480;2023-04-06T04:41:17;3.70;60.70
1347;DHT22;667;48.796;9.480;2023-04-06T04:43:43;3.70;60.90
1347;DHT22;667;48.796;9.480;2023-04-06T04:46:08;3.60;60.70
1347;DHT22;667;48.796;9.480;2023-04-06T04:48:34;3.60;60.70
1347;DHT22;667;48.796;9.480;2023-04-06T04:51:00;3.60;60.70
1347;DHT22;667;48.796;9.480;2023-04-06T04:53:25;3.60;60.70
1347;DHT22;667;48.796;9.480;2023-04-06T04:55:51;3.60;60.90
1347;DHT22;667;48.796;9.480;2023-04-06T04:58:17;3.60;61.20
1347;DHT22;667;48.796;9.480;2023-04-06T05:00:44;3.60;61.30
1347;DHT22;667;48.796;9.480;2023-04-06T05:03:25;3.60;61.40
1347;DHT22;667;48.796;9.480;2023-04-06T05:05:51;3.60;61.40
1347;DHT22;667;48.796;9.480;2023-04-06T05:08:17;3.60;61.40
1347;DHT22;667;48.796;9.480;2023-04-06T05:10:42;3.60;61.40
1347;DHT22;667;48.796;9.480;2023-04-06T05:13:09;3.60;61.30
1347;DHT22;667;48.796;9.480;2023-04-06T05:15:35;3.60;61.20
1347;DHT22;667;48.796;9.480;2023-04-06T05:18:09;3.60;61.40
1347;DHT22;667;48.796;9.480;2023-04-06T05:20:35;3.60;61.30
1347;DHT22;667;48.796;9.480;2023-04-06T05:23:01;3.60;61.50
1347;DHT22;667;48.796;9.480;2023-04-06T05:25:27;3.60;61.60
1347;DHT22;667;48.796;9.480;2023-04-06T05:27:53;3.60;61.60
1347;DHT22;667;48.796;9.480;2023-04-06T05:30:19;3.60;61.60
1347;DHT22;667;48.796;9.480;2023-04-06T05:32:46;3.60;61.60
1347;DHT22;667;48.796;9.480;2023-04-06T05:35:11;3.60;61.70
1347;DHT22;667;48.796;9.480;2023-04-06T05:37:38;3.60;61.70
1347;DHT22;667;48.796;9.480;2023-04-06T05:40:04;3.60;61.90
1347;DHT22;667;48.796;9.480;2023-04-06T05:42:39;3.70;61.90
1347;DHT22;667;48.796;9.480;2023-04-06T05:45:07;3.70;61.80
1347;DHT22;667;48.796;9.480;2023-04-06T05:47:32;3.70;61.80
1347;DHT22;667;48.796;9.480;2023-04-06T05:49:58;3.70;61.90
1347;DHT22;667;48.796;9.480;2023-04-06T05:52:23;3.70;62.00
1347;DHT22;667;48.796;9.480;2023-04-06T05:54:49;3.80;62.20
1347;DHT22;667;48.796;9.480;2023-04-06T05:57:15;3.80;62.40
1347;DHT22;667;48.796;9.480;2023-04-06T05:59:42;3.90;62.60
1347;DHT22;667;48.796;9.480;2023-04-06T06:02:07;3.90;62.50
1347;DHT22;667;48.796;9.480;2023-04-06T06:04:33;3.90;62.30
1347;DHT22;667;48.796;9.480;2023-04-06T06:06:59;4.00;62.50
1347;DHT22;667;48.796;9.480;2023-04-06T06:09:25;4.10;62.70
1347;DHT22;667;48.796;9.480;2023-04-06T06:11:51;4.20;62.60
1347;DHT22;667;48.796;9.480;2023-04-06T06:14:17;4.20;62.30
1347;DHT22;667;48.796;9.480;2023-04-06T06:16:42;4.30;61.70
1347;DHT22;667;48.796;9.480;2023-04-06T06:19:08;4.30;62.00
1347;DHT22;667;48.796;9.480;2023-04-06T06:21:34;4.40;61.00
1347;DHT22;667;48.796;9.480;2023-04-06T06:23:59;4.40;61.00
1347;DHT22;667;48.796;9.480;2023-04-06T06:26:25;4.40;61.00
1347;DHT22;667;48.796;9.480;2023-04-06T06:28:51;4.40;61.30
1347;DHT22;667;48.796;9.480;2023-04-06T06:31:17;4.50;61.60
1347;DHT22;667;48.796;9.480;2023-04-06T06:33:43;4.60;62.70
1347;DHT22;667;48.796;9.480;2023-04-06T06:36:09;4.70;61.50
1347;DHT22;667;48.796;9.480;2023-04-06T06:38:35;4.80;61.60
1347;DHT22;667;48.796;9.480;2023-04-06T06:41:01;4.90;61.40
1347;DHT22;667;48.796;9.480;2023-04-06T06:43:26;4.90;61.10
1347;DHT22;667;48.796;9.480;2023-04-06T06:45:52;5.10;61.20
1347;DHT22;667;48.796;9.480;2023-04-06T06:48:18;5.20;61.10
1347;DHT22;667;48.796;9.480;2023-04-06T06:50:43;5.30;61.00
1347;DHT22;667;48.796;9.480;2023-04-06T06:53:09;5.50;61.20
1347;DHT22;667;48.796;9.480;2023-04-06T06:55:34;5.60;60.60
1347;DHT22;667;48.796;9.480;2023-04-06T06:58:00;5.70;59.90
1347;DHT22;667;48.796;9.480;2023-04-06T07:00:26;5.90;59.70
1347;DHT22;667;48.796;9.480;2023-04-06T07:02:51;6.00;59.60
1347;DHT22;667;48.796;9.480;2023-04-06T07:05:17;6.20;59.90
1347;DHT22;667;48.796;9.480;2023-04-06T07:07:42;6.30;59.30
1347;DHT22;667;48.796;9.480;2023-04-06T07:10:08;6.50;58.90
1347;DHT22;667;48.796;9.480;2023-04-06T07:12:34;6.60;58.60
1347;DHT22;667;48.796;9.480;2023-04-06T07:15:00;6.70;58.30
1347;DHT22;667;48.796;9.480;2023-04-06T07:17:26;6.80;57.80
1347;DHT22;667;48.796;9.480;2023-04-06T07:19:52;6.80;57.10
1347;DHT22;667;48.796;9.480;2023-04-06T07:22:17;6.90;57.10
1347;DHT22;667;48.796;9.480;2023-04-06T07:24:43;7.00;57.20
1347;DHT22;667;48.796;9.480;2023-04-06T07:27:09;7.00;57.10
1347;DHT22;667;48.796;9.480;2023-04-06T07:29:34;7.10;56.90
1347;DHT22;667;48.796;9.480;2023-04-06T07:32:00;7.20;56.80
1347;DHT22;667;48.796;9.480;2023-04-06T07:34:26;7.30;56.70
1347;DHT22;667;48.796;9.480;2023-04-06T07:36:51;7.40;56.40
1347;DHT22;667;48.796;9.480;2023-04-06T07:39:19;7.50;56.00
1347;DHT22;667;48.796;9.480;2023-04-06T07:41:45;7.60;55.80
1347;DHT22;667;48.796;9.480;2023-04-06T07:44:10;7.60;55.70
1347;DHT22;667;48.796;9.480;2023-04-06T07:46:36;7.70;55.90
1347;DHT22;667;48.796;9.480;2023-04-06T07:49:01;7.80;55.40
1347;DHT22;667;48.796;9.480;2023-04-06T07:51:27;7.90;55.30
1347;DHT22;667;48.796;9.480;2023-04-06T07:53:53;8.00;55.70
1347;DHT22;667;48.796;9.480;2023-04-06T07:56:19;8.10;55.50
1347;DHT22;667;48.796;9.480;2023-04-06T08:01:18;8.20;54.50
1347;DHT22;667;48.796;9.480;2023-04-06T08:03:43;8.30;54.70
1347;DHT22;667;48.796;9.480;2023-04-06T08:06:09;8.40;54.40
1347;DHT22;667;48.796;9.480;2023-04-06T08:08:35;8.50;54.40
1347;DHT22;667;48.796;9.480;2023-04-06T08:11:00;8.60;54.60
1347;DHT22;667;48.796;9.480;2023-04-06T08:13:28;8.80;54.80
1347;DHT22;667;48.796;9.480;2023-04-06T08:15:53;8.90;54.10
1347;DHT22;667;48.796;9.480;2023-04-06T08:18:19;9.00;53.30
1347;DHT22;667;48.796;9.480;2023-04-06T08:20:45;9.10;52.50
1347;DHT22;667;48.796;9.480;2023-04-06T08:23:10;9.20;52.00
1347;DHT22;667;48.796;9.480;2023-04-06T08:25:36;9.30;51.60
1347;DHT22;667;48.796;9.480;2023-04-06T08:28:03;9.30;51.30
1347;DHT22;667;48.796;9.480;2023-04-06T08:30:29;9.40;50.70
1347;DHT22;667;48.796;9.480;2023-04-06T08:32:55;9.50;50.70
1347;DHT22;667;48.796;9.480;2023-04-06T08:35:20;9.60;50.50
1347;DHT22;667;48.796;9.480;2023-04-06T08:37:46;9.70;50.30
1347;DHT22;667;48.796;9.480;2023-04-06T08:40:12;9.80;50.00
1347;DHT22;667;48.796;9.480;2023-04-06T08:42:46;10.00;49.50
1347;DHT22;667;48.796;9.480;2023-04-06T08:45:16;10.10;49.50
1347;DHT22;667;48.796;9.480;2023-04-06T08:47:42;10.20;49.10
1347;DHT22;667;48.796;9.480;2023-04-06T08:50:09;10.30;48.50
1347;DHT22;667;48.796;9.480;2023-04-06T08:52:37;10.50;48.50
1347;DHT22;667;48.796;9.480;2023-04-06T08:55:03;10.50;48.40
1347;DHT22;667;48.796;9.480;2023-04-06T08:57:30;10.70;48.90
1347;DHT22;667;48.796;9.480;2023-04-06T08:59:56;10.80;48.10
1347;DHT22;667;48.796;9.480;2023-04-06T09:02:22;10.90;47.50
1347;DHT22;667;48.796;9.480;2023-04-06T09:04:53;11.00;46.80
1347;DHT22;667;48.796;9.480;2023-04-06T09:07:18;11.10;46.90
1347;DHT22;667;48.796;9.480;2023-04-06T09:09:44;11.30;47.50
1347;DHT22;667;48.796;9.480;2023-04-06T09:12:24;11.40;47.40
1347;DHT22;667;48.796;9.480;2023-04-06T09:14:49;11.60;72.50
1347;DHT22;667;48.796;9.480;2023-04-06T09:17:31;11.80;69.10
1347;DHT22;667;48.796;9.480;2023-04-06T09:22:34;12.10;44.60
1347;DHT22;667;48.796;9.480;2023-04-06T09:25:00;12.20;44.00
1347;DHT22;667;48.796;9.480;2023-04-06T09:27:32;12.40;43.80
1347;DHT22;667;48.796;9.480;2023-04-06T09:30:09;12.50;43.80
1347;DHT22;667;48.796;9.480;2023-04-06T09:32:55;12.60;43.80
1347;DHT22;667;48.796;9.480;2023-04-06T09:35:22;12.80;43.60
1347;DHT22;667;48.796;9.480;2023-04-06T09:37:49;12.90;43.60
1347;DHT22;667;48.796;9.480;2023-04-06T09:40:15;13.10;43.40
1347;DHT22;667;48.796;9.480;2023-04-06T09:42:45;13.30;43.20
1347;DHT22;667;48.796;9.480;2023-04-06T09:45:12;13.40;41.80
1347;DHT22;667;48.796;9.480;2023-04-06T09:47:40;13.50;41.40
1347;DHT22;667;48.796;9.480;2023-04-06T09:50:09;13.70;41.20
1347;DHT22;667;48.796;9.480;2023-04-06T09:52:42;13.80;40.00
1347;DHT22;667;48.796;9.480;2023-04-06T09:55:08;13.90;39.70
1347;DHT22;667;48.796;9.480;2023-04-06T09:57:41;14.00;39.70
1347;DHT22;667;48.796;9.480;2023-04-06T10:00:10;14.20;40.20
1347;DHT22;667;48.796;9.480;2023-04-06T10:08:08;14.60;34.60
1347;DHT22;667;48.796;9.480;2023-04-06T10:10:34;14.70;35.20
1347;DHT22;667;48.796;9.480;2023-04-06T10:13:00;14.80;35.20
1347;DHT22;667;48.796;9.480;2023-04-06T10:15:28;14.90;34.80
1347;DHT22;667;48.796;9.480;2023-04-06T10:17:56;15.00;34.60
1347;DHT22;667;48.796;9.480;2023-04-06T10:20:49;15.10;34.70
1347;DHT22;667;48.796;9.480;2023-04-06T10:23:39;15.20;34.50
1347;DHT22;667;48.796;9.480;2023-04-06T10:26:02;15.30;34.30
1347;DHT22;667;48.796;9.480;2023-04-06T10:28:35;15.40;33.90
1347;DHT22;667;48.796;9.480;2023-04-06T10:31:05;15.50;35.10
1347;DHT22;667;48.796;9.480;2023-04-06T10:33:31;15.60;34.70
1347;DHT22;667;48.796;9.480;2023-04-06T10:35:57;15.70;34.50
1347;DHT22;667;48.796;9.480;2023-04-06T10:38:43;15.80;34.20
1347;DHT22;667;48.796;9.480;2023-04-06T10:41:12;15.90;33.90
1347;DHT22;667;48.796;9.480;2023-04-06T10:43:39;15.90;34.00
1347;DHT22;667;48.796;9.480;2023-04-06T10:46:06;15.90;33.90
1347;DHT22;667;48.796;9.480;2023-04-06T10:48:43;16.00;34.00
1347;DHT22;667;48.796;9.480;2023-04-06T10:51:14;16.00;32.90
1347;DHT22;667;48.796;9.480;2023-04-06T10:53:42;16.00;32.20
1347;DHT22;667;48.796;9.480;2023-04-06T10:56:16;16.00;32.40
1347;DHT22;667;48.796;9.480;2023-04-06T10:58:53;16.00;32.20
1347;DHT22;667;48.796;9.480;2023-04-06T11:01:22;16.10;31.90
1347;DHT22;667;48.796;9.480;2023-04-06T11:03:53;16.10;31.20
1347;DHT22;667;48.796;9.480;2023-04-06T11:06:26;16.20;31.20
1347;DHT22;667;48.796;9.480;2023-04-06T11:08:54;16.20;30.70
1347;DHT22;667;48.796;9.480;2023-04-06T11:11:21;16.30;30.80
1347;DHT22;667;48.796;9.480;2023-04-06T11:13:57;16.40;31.20
1347;DHT22;667;48.796;9.480;2023-04-06T11:16:30;16.40;31.20
1347;DHT22;667;48.796;9.480;2023-04-06T11:19:04;16.50;31.60
1347;DHT22;667;48.796;9.480;2023-04-06T11:21:41;16.60;31.90
1347;DHT22;667;48.796;9.480;2023-04-06T11:24:17;16.60;31.30
1347;DHT22;667;48.796;9.480;2023-04-06T11:26:44;16.60;30.70
1347;DHT22;667;48.796;9.480;2023-04-06T11:29:11;16.60;30.00
1347;DHT22;667;48.796;9.480;2023-04-06T11:31:41;16.60;29.90
1347;DHT22;667;48.796;9.480;2023-04-06T11:34:16;16.60;29.90
1347;DHT22;667;48.796;9.480;2023-04-06T11:36:43;16.60;29.70
1347;DHT22;667;48.796;9.480;2023-04-06T11:39:09;16.60;30.90
1347;DHT22;667;48.796;9.480;2023-04-06T11:41:35;16.70;33.30
1347;DHT22;667;48.796;9.480;2023-04-06T11:44:01;16.70;33.50
1347;DHT22;667;48.796;9.480;2023-04-06T11:46:30;16.70;33.20
1347;DHT22;667;48.796;9.480;2023-04-06T11:49:00;16.70;34.80
1347;DHT22;667;48.796;9.480;2023-04-06T11:51:26;16.80;34.30
1347;DHT22;667;48.796;9.480;2023-04-06T11:53:52;16.80;34.00
1347;DHT22;667;48.796;9.480;2023-04-06T11:56:28;16.80;33.50
1347;DHT22;667;48.796;9.480;2023-04-06T11:58:55;16.90;32.60
1347;DHT22;667;48.796;9.480;2023-04-06T12:01:22;16.90;31.80
1347;DHT22;667;48.796;9.480;2023-04-06T12:03:48;16.90;32.10
1347;DHT22;667;48.796;9.480;2023-04-06T12:06:14;17.00;33.00
1347;DHT22;667;48.796;9.480;2023-04-06T12:08:40;17.00;31.70
1347;DHT22;667;48.796;9.480;2023-04-06T12:11:06;17.00;32.20
1347;DHT22;667;48.796;9.480;2023-04-06T12:13:31;17.00;32.00
1347;DHT22;667;48.796;9.480;2023-04-06T12:15:57;17.00;30.70
1347;DHT22;667;48.796;9.480;2023-04-06T12:18:22;17.00;29.80
1347;DHT22;667;48.796;9.480;2023-04-06T12:20:48;16.90;29.50
1347;DHT22;667;48.796;9.480;2023-04-06T12:23:14;16.80;28.80
1347;DHT22;667;48.796;9.480;2023-04-06T12:25:40;16.80;29.60
1347;DHT22;667;48.796;9.480;2023-04-06T12:28:06;16.80;29.10
1347;DHT22;667;48.796;9.480;2023-04-06T12:30:32;16.80;28.70
1347;DHT22;667;48.796;9.480;2023-04-06T12:32:58;16.70;27.00
1347;DHT22;667;48.796;9.480;2023-04-06T12:35:23;16.70;27.70
1347;DHT22;667;48.796;9.480;2023-04-06T12:37:49;16.60;28.60
1347;DHT22;667;48.796;9.480;2023-04-06T12:40:15;16.60;29.10
1347;DHT22;667;48.796;9.480;2023-04-06T12:42:40;16.60;28.80
1347;DHT22;667;48.796;9.480;2023-04-06T12:45:08;16.60;28.50
1347;DHT22;667;48.796;9.480;2023-04-06T12:47:33;16.60;28.10
1347;DHT22;667;48.796;9.480;2023-04-06T12:50:01;16.50;28.80
1347;DHT22;667;48.796;9.480;2023-04-06T12:52:27;16.50;29.40
1347;DHT22;667;48.796;9.480;2023-04-06T12:54:55;16.40;29.30
1347;DHT22;667;48.796;9.480;2023-04-06T12:57:21;16.40;29.40
1347;DHT22;667;48.796;9.480;2023-04-06T12:59:47;16.40;29.50
1347;DHT22;667;48.796;9.480;2023-04-06T13:02:12;16.40;29.60
1347;DHT22;667;48.796;9.480;2023-04-06T13:04:38;16.50;29.80
1347;DHT22;667;48.796;9.480;2023-04-06T13:07:04;16.50;29.50
1347;DHT22;667;48.796;9.480;2023-04-06T13:09:30;16.50;29.10
1347;DHT22;667;48.796;9.480;2023-04-06T13:11:56;16.60;29.50
1347;DHT22;667;48.796;9.480;2023-04-06T13:14:22;16.60;29.60
1347;DHT22;667;48.796;9.480;2023-04-06T13:16:47;16.60;29.40
1347;DHT22;667;48.796;9.480;2023-04-06T13:19:13;16.70;28.80
1347;DHT22;667;48.796;9.480;2023-04-06T13:21:39;16.70;28.30
1347;DHT22;667;48.796;9.480;2023-04-06T13:24:05;16.70;28.20
1347;DHT22;667;48.796;9.480;2023-04-06T13:26:31;16.70;28.40
1347;DHT22;667;48.796;9.480;2023-04-06T13:28:56;16.70;28.40
1347;DHT22;667;48.796;9.480;2023-04-06T13:31:22;16.60;27.80
1347;DHT22;667;48.796;9.480;2023-04-06T13:33:48;16.60;28.10
1347;DHT22;667;48.796;9.480;2023-04-06T13:36:13;16.50;27.80
1347;DHT22;667;48.796;9.480;2023-04-06T13:38:39;16.50;28.40
1347;DHT22;667;48.796;9.480;2023-04-06T13:41:05;16.50;28.60
1347;DHT22;667;48.796;9.480;2023-04-06T13:43:31;16.50;28.90
1347;DHT22;667;48.796;9.480;2023-04-06T13:45:57;16.50;29.20
1347;DHT22;667;48.796;9.480;2023-04-06T13:48:25;16.50;28.70
1347;DHT22;667;48.796;9.480;2023-04-06T13:50:51;16.50;28.90
1347;DHT22;667;48.796;9.480;2023-04-06T13:53:17;16.40;28.80
1347;DHT22;667;48.796;9.480;2023-04-06T13:55:43;16.40;28.80
1347;DHT22;667;48.796;9.480;2023-04-06T13:58:09;16.30;28.80
1347;DHT22;667;48.796;9.480;2023-04-06T14:00:35;16.30;28.60
1347;DHT22;667;48.796;9.480;2023-04-06T14:03:01;16.30;28.20
1347;DHT22;667;48.796;9.480;2023-04-06T14:05:30;16.20;28.10
1347;DHT22;667;48.796;9.480;2023-04-06T14:07:55;16.20;28.30
1347;DHT22;667;48.796;9.480;2023-04-06T14:10:21;16.10;28.30
1347;DHT22;667;48.796;9.480;2023-04-06T14:12:49;16.10;28.20
1347;DHT22;667;48.796;9.480;2023-04-06T14:15:15;16.10;28.50
1347;DHT22;667;48.796;9.480;2023-04-06T14:17:40;16.10;28.70
1347;DHT22;667;48.796;9.480;2023-04-06T14:20:06;16.10;28.70
1347;DHT22;667;48.796;9.480;2023-04-06T14:22:32;16.10;28.60
1347;DHT22;667;48.796;9.480;2023-04-06T14:24:58;16.10;28.50
1347;DHT22;667;48.796;9.480;2023-04-06T14:27:24;16.10;28.50
1347;DHT22;667;48.796;9.480;2023-04-06T14:29:49;16.00;28.30
1347;DHT22;667;48.796;9.480;2023-04-06T14:32:16;16.00;28.20
1347;DHT22;667;48.796;9.480;2023-04-06T14:34:42;16.00;28.20
1347;DHT22;667;48.796;9.480;2023-04-06T14:37:07;16.00;28.20
1347;DHT22;667;48.796;9.480;2023-04-06T14:39:33;16.00;28.50
1347;DHT22;667;48.796;9.480;2023-04-06T14:41:58;16.00;28.70
1347;DHT22;667;48.796;9.480;2023-04-06T14:44:24;16.00;28.50
1347;DHT22;667;48.796;9.480;2023-04-06T14:46:50;16.00;28.40
1347;DHT22;667;48.796;9.480;2023-04-06T14:49:16;16.00;28.40
1347;DHT22;667;48.796;9.480;2023-04-06T14:51:41;16.00;28.00
1347;DHT22;667;48.796;9.480;2023-04-06T14:54:07;16.00;28.20
1347;DHT22;667;48.796;9.480;2023-04-06T14:56:33;16.00;29.00
1347;DHT22;667;48.796;9.480;2023-04-06T14:58:59;16.00;28.70
1347;DHT22;667;48.796;9.480;2023-04-06T15:01:27;16.00;28.80
1347;DHT22;667;48.796;9.480;2023-04-06T15:03:52;16.00;28.70
1347;DHT22;667;48.796;9.480;2023-04-06T15:06:18;16.00;28.80
1347;DHT22;667;48.796;9.480;2023-04-06T15:08:46;16.00;28.50
1347;DHT22;667;48.796;9.480;2023-04-06T15:11:13;16.00;28.10
1347;DHT22;667;48.796;9.480;2023-04-06T15:13:40;16.00;27.90
1347;DHT22;667;48.796;9.480;2023-04-06T15:16:07;16.00;27.90
1347;DHT22;667;48.796;9.480;2023-04-06T15:18:36;16.00;27.60
1347;DHT22;667;48.796;9.480;2023-04-06T15:21:02;15.90;28.00
1347;DHT22;667;48.796;9.480;2023-04-06T15:23:27;15.90;28.10
1347;DHT22;667;48.796;9.480;2023-04-06T15:25:55;15.90;28.20
1347;DHT22;667;48.796;9.480;2023-04-06T15:28:21;15.90;28.30
1347;DHT22;667;48.796;9.480;2023-04-06T15:30:46;15.90;28.60
1347;DHT22;667;48.796;9.480;2023-04-06T15:33:12;15.80;28.50
1347;DHT22;667;48.796;9.480;2023-04-06T15:35:37;15.80;28.80
1347;DHT22;667;48.796;9.480;2023-04-06T15:38:08;15.80;29.20
1347;DHT22;667;48.796;9.480;2023-04-06T15:40:38;15.80;29.30
1347;DHT22;667;48.796;9.480;2023-04-06T15:43:06;15.80;29.20
1347;DHT22;667;48.796;9.480;2023-04-06T15:45:32;15.80;29.40
1347;DHT22;667;48.796;9.480;2023-04-06T15:47:58;15.80;29.70
1347;DHT22;667;48.796;9.480;2023-04-06T15:50:23;15.80;29.50
1347;DHT22;667;48.796;9.480;2023-04-06T15:52:49;15.80;29.60
1347;DHT22;667;48.796;9.480;2023-04-06T15:55:14;15.80;30.10
1347;DHT22;667;48.796;9.480;2023-04-06T15:57:40;15.80;30.60
1347;DHT22;667;48.796;9.480;2023-04-06T16:00:06;15.70;30.60
1347;DHT22;667;48.796;9.480;2023-04-06T16:02:32;15.70;30.10
1347;DHT22;667;48.796;9.480;2023-04-06T16:04:58;15.70;30.50
1347;DHT22;667;48.796;9.480;2023-04-06T16:07:27;15.60;30.10
1347;DHT22;667;48.796;9.480;2023-04-06T16:09:52;15.60;30.20
1347;DHT22;667;48.796;9.480;2023-04-06T16:12:19;15.60;30.10
1347;DHT22;667;48.796;9.480;2023-04-06T16:14:45;15.60;30.60
1347;DHT22;667;48.796;9.480;2023-04-06T16:17:11;15.60;30.80
1347;DHT22;667;48.796;9.480;2023-04-06T16:19:37;15.50;30.60
1347;DHT22;667;48.796;9.480;2023-04-06T16:22:03;15.50;30.60
1347;DHT22;667;48.796;9.480;2023-04-06T16:24:29;15.50;31.30
1347;DHT22;667;48.796;9.480;2023-04-06T16:26:54;15.40;30.60
1347;DHT22;667;48.796;9.480;2023-04-06T16:29:21;15.40;30.20
1347;DHT22;667;48.796;9.480;2023-04-06T16:31:47;15.40;30.60
1347;DHT22;667;48.796;9.480;2023-04-06T16:34:13;15.30;30.80
1347;DHT22;667;48.796;9.480;2023-04-06T16:36:39;15.30;30.70